Time;durP1;ratioP1;P1;durP2;ratioP2;P2;SDS_P1;SDS_P2;PMS_P1;PMS_P2;Temp;Humidity;BMP_temperature;BMP_pressure;BME280_temperature;BME280_humidity;BME280_pressure;Samples;Min_cycle;Max_cycle;Signal;HPM_P1;HPM_P2
2023/12/10 00:00:09;;;;;;;18.40;3.27;;;9.80;80.20;;;;;;5047489;28;20201;-73
2023/12/10 00:02:35;;;;;;;13.27;4.07;;;9.90;80.20;;;;;;5045809;28;20609;-73
2023/12/10 00:05:01;;;;;;;13.70;2.63;;;9.90;80.20;;;;;;5048127;28;20458;-72
2023/12/10 00:07:27;;;;;;;13.70;3.30;;;9.90;79.60;;;;;;5047780;28;20434;-73
2023/12/10 00:09:53;;;;;;;12.03;2.93;;;9.90;79.60;;;;;;5049364;28;20459;-72
2023/12/10 00:12:19;;;;;;;16.07;3.20;;;9.90;79.00;;;;;;5050519;28;20615;-70
2023/12/10 00:14:49;;;;;;;13.93;2.90;;;9.90;79.50;;;;;;5050217;28;20214;-71
2023/12/10 00:17:15;;;;;;;18.63;3.97;;;9.90;79.30;;;;;;5050563;28;20193;-72
2023/12/10 00:19:40;;;;;;;6.53;2.30;;;9.90;79.30;;;;;;5042780;28;20466;-70
2023/12/10 00:22:06;;;;;;;10.53;2.80;;;9.90;78.90;;;;;;5037201;28;20322;-71
2023/12/10 00:24:31;;;;;;;8.80;4.07;;;9.80;79.20;;;;;;5047087;28;20173;-73
2023/12/10 00:26:57;;;;;;;20.07;2.73;;;9.80;79.50;;;;;;5051922;28;20649;-73
2023/12/10 00:29:23;;;;;;;10.43;2.67;;;9.80;79.00;;;;;;5045755;28;20184;-74
2023/12/10 00:31:49;;;;;;;10.57;3.23;;;9.90;78.70;;;;;;5046714;28;20201;-74
2023/12/10 00:34:15;;;;;;;13.93;2.90;;;9.80;78.60;;;;;;5046658;28;20572;-73
2023/12/10 00:36:40;;;;;;;7.57;2.80;;;9.80;78.10;;;;;;5050557;28;20430;-72
2023/12/10 00:39:06;;;;;;;14.40;4.20;;;9.80;78.00;;;;;;5051224;28;20172;-73
2023/12/10 00:41:32;;;;;;;11.23;3.20;;;9.90;78.00;;;;;;5048419;28;20208;-77
2023/12/10 00:43:58;;;;;;;18.93;3.63;;;9.90;77.70;;;;;;5046202;28;20316;-71
2023/12/10 00:46:23;;;;;;;17.00;3.47;;;9.90;77.70;;;;;;5054865;28;20216;-71
2023/12/10 00:48:49;;;;;;;14.93;2.53;;;9.80;77.40;;;;;;5054884;28;20181;-71
2023/12/10 00:51:22;;;;;;;11.37;3.40;;;9.80;77.30;;;;;;5043826;28;20200;-71
2023/12/10 00:53:48;;;;;;;12.13;3.10;;;9.80;77.70;;;;;;5051575;28;20750;-74
2023/12/10 00:56:14;;;;;;;13.77;3.30;;;9.80;77.10;;;;;;5055821;28;20423;-74
2023/12/10 00:58:40;;;;;;;16.77;3.90;;;9.80;77.60;;;;;;5049775;28;20489;-76
2023/12/10 01:01:07;;;;;;;14.33;3.63;;;9.80;77.10;;;;;;5050876;28;20759;-74
2023/12/10 01:03:33;;;;;;;10.80;4.40;;;9.80;76.50;;;;;;5049937;28;20427;-73
2023/12/10 01:06:00;;;;;;;20.80;3.80;;;9.90;76.10;;;;;;5051373;28;20474;-74
2023/12/10 01:08:26;;;;;;;18.43;4.60;;;9.90;76.10;;;;;;5051995;28;20427;-74
2023/12/10 01:10:51;;;;;;;17.73;3.90;;;9.90;76.20;;;;;;5049057;28;20455;-73
2023/12/10 01:13:17;;;;;;;20.13;4.90;;;9.80;76.40;;;;;;5043842;28;20182;-72
2023/12/10 01:15:43;;;;;;;22.37;4.20;;;9.90;76.20;;;;;;5053865;28;20177;-74
2023/12/10 01:18:09;;;;;;;20.97;4.50;;;9.80;76.10;;;;;;5053767;28;20188;-72
2023/12/10 01:20:37;;;;;;;11.97;3.33;;;9.90;75.50;;;;;;5048664;28;20520;-73
2023/12/10 01:23:04;;;;;;;12.17;3.87;;;9.90;75.40;;;;;;5046533;28;20186;-73
2023/12/10 01:25:29;;;;;;;20.17;4.70;;;9.90;75.70;;;;;;5052120;28;20463;-72
2023/12/10 01:27:55;;;;;;;21.00;4.50;;;9.90;75.20;;;;;;5054217;28;20435;-72
2023/12/10 01:30:24;;;;;;;20.03;6.00;;;9.90;75.70;;;;;;5052790;28;20224;-71
2023/12/10 01:32:55;;;;;;;24.73;5.07;;;9.80;75.70;;;;;;5050351;28;20188;-73
2023/12/10 01:35:21;;;;;;;19.27;3.90;;;9.90;75.70;;;;;;5053444;28;20446;-73
2023/12/10 01:37:47;;;;;;;17.17;3.83;;;9.90;74.80;;;;;;5055187;28;20415;-73
2023/12/10 01:40:13;;;;;;;31.67;4.83;;;9.90;74.80;;;;;;5049552;28;20517;-72
2023/12/10 01:42:40;;;;;;;15.10;3.30;;;9.90;74.50;;;;;;5049561;28;20191;-72
2023/12/10 01:45:07;;;;;;;22.13;4.67;;;10.00;74.50;;;;;;5052126;28;20554;-75
2023/12/10 01:47:35;;;;;;;32.90;5.40;;;10.00;74.30;;;;;;5052781;28;20419;-73
2023/12/10 01:50:05;;;;;;;21.10;6.83;;;10.00;74.60;;;;;;5047812;28;20819;-73
2023/12/10 01:52:32;;;;;;;19.77;4.50;;;10.00;74.50;;;;;;5038345;28;20553;-74
2023/12/10 01:55:01;;;;;;;24.40;4.70;;;10.00;74.80;;;;;;5045764;28;20488;-72
2023/12/10 01:57:27;;;;;;;13.77;4.30;;;10.00;74.30;;;;;;5051128;28;20418;-72
2023/12/10 01:59:53;;;;;;;23.07;4.33;;;9.90;74.30;;;;;;5043076;28;20442;-70
2023/12/10 02:02:21;;;;;;;24.93;5.00;;;9.90;74.50;;;;;;5041767;28;20431;-71
2023/12/10 02:04:46;;;;;;;14.27;3.93;;;9.90;74.50;;;;;;5049481;28;20193;-74
2023/12/10 02:07:12;;;;;;;17.40;3.80;;;9.90;74.00;;;;;;5052106;28;20422;-73
2023/12/10 02:09:38;;;;;;;15.90;4.30;;;9.90;74.00;;;;;;5048328;28;20692;-71
2023/12/10 02:12:04;;;;;;;25.63;4.57;;;9.90;74.00;;;;;;5048634;28;20319;-73
2023/12/10 02:14:30;;;;;;;24.60;4.50;;;9.90;74.20;;;;;;5050728;28;20184;-75
2023/12/10 02:16:55;;;;;;;23.60;4.50;;;10.00;74.30;;;;;;5051479;28;20426;-72
2023/12/10 02:19:21;;;;;;;20.43;4.07;;;9.90;74.20;;;;;;5047438;28;20216;-71
2023/12/10 02:21:48;;;;;;;13.20;4.20;;;9.90;74.30;;;;;;5047021;28;20670;-72
2023/12/10 02:24:25;;;;;;;20.07;5.00;;;9.80;74.30;;;;;;5051911;28;20180;-72
2023/12/10 02:26:51;;;;;;;23.00;4.17;;;9.80;74.50;;;;;;5057287;28;20415;-71
2023/12/10 02:29:17;;;;;;;18.47;5.03;;;9.80;74.50;;;;;;5055143;28;20469;-76
2023/12/10 02:31:43;;;;;;;18.33;5.07;;;9.80;74.30;;;;;;5052769;28;20209;-71
2023/12/10 02:34:09;;;;;;;17.37;3.20;;;9.80;75.10;;;;;;5055215;28;20526;-71
2023/12/10 02:36:34;;;;;;;24.23;4.30;;;9.70;75.40;;;;;;5057700;28;20433;-75
2023/12/10 02:39:00;;;;;;;16.60;4.37;;;9.60;76.40;;;;;;5049518;28;20420;-75
2023/12/10 02:41:25;;;;;;;21.47;4.43;;;9.50;76.70;;;;;;5054501;28;20205;-71
2023/12/10 02:43:51;;;;;;;13.83;3.23;;;9.30;78.60;;;;;;5048156;28;20176;-71
2023/12/10 02:46:17;;;;;;;7.50;2.37;;;9.10;78.60;;;;;;5056219;28;20209;-74
2023/12/10 02:48:42;;;;;;;6.80;2.13;;;9.00;79.00;;;;;;5050777;28;20181;-76
2023/12/10 02:51:08;;;;;;;13.53;3.00;;;8.70;81.20;;;;;;5043528;28;21079;-73
2023/12/10 02:53:34;;;;;;;17.60;3.60;;;8.40;83.00;;;;;;5046736;28;20212;-76
2023/12/10 02:55:59;;;;;;;20.43;2.80;;;8.20;83.70;;;;;;5050777;28;20172;-70
2023/12/10 02:58:25;;;;;;;12.50;3.10;;;8.10;84.60;;;;;;5051010;28;20570;-74
2023/12/10 03:00:50;;;;;;;18.50;4.33;;;8.10;85.60;;;;;;5048446;28;20288;-72
2023/12/10 03:03:16;;;;;;;18.03;4.33;;;8.00;85.30;;;;;;5046360;28;20184;-74
2023/12/10 03:05:42;;;;;;;12.10;2.43;;;7.90;86.20;;;;;;5051090;28;20211;-72
2023/12/10 03:08:07;;;;;;;20.30;3.30;;;7.90;86.50;;;;;;5050723;28;20716;-73
2023/12/10 03:10:33;;;;;;;8.27;2.73;;;7.90;86.50;;;;;;5043719;28;20208;-73
2023/12/10 03:12:58;;;;;;;11.93;2.43;;;7.80;86.20;;;;;;5046704;28;20193;-73
2023/12/10 03:15:24;;;;;;;8.17;1.90;;;7.80;86.00;;;;;;5048075;28;20184;-71
2023/12/10 03:17:50;;;;;;;8.73;1.63;;;7.80;85.30;;;;;;5048676;28;20230;-73
2023/12/10 03:20:15;;;;;;;8.53;2.23;;;7.80;85.00;;;;;;5045136;28;20205;-71
2023/12/10 03:22:41;;;;;;;3.60;1.20;;;7.80;84.60;;;;;;5053735;28;20184;-73
2023/12/10 03:25:07;;;;;;;8.07;2.20;;;7.80;84.60;;;;;;5053981;28;20207;-72
2023/12/10 03:27:33;;;;;;;5.80;2.00;;;7.80;84.70;;;;;;5049364;28;20188;-72
2023/12/10 03:29:58;;;;;;;6.67;1.23;;;7.80;84.30;;;;;;5047375;28;20463;-72
2023/12/10 03:32:24;;;;;;;7.70;1.60;;;7.80;84.10;;;;;;5045811;28;20426;-73
2023/12/10 03:34:50;;;;;;;11.63;1.90;;;7.80;84.30;;;;;;5053618;28;20228;-73
2023/12/10 03:37:15;;;;;;;6.10;1.80;;;7.70;84.30;;;;;;5059490;28;20254;-73
2023/12/10 03:39:41;;;;;;;9.53;1.90;;;7.80;84.30;;;;;;5046786;28;20212;-71
2023/12/10 03:42:06;;;;;;;3.13;1.60;;;7.80;84.00;;;;;;5043620;28;20737;-73
2023/12/10 03:44:32;;;;;;;4.93;1.70;;;7.80;83.70;;;;;;5049428;28;20612;-73
2023/12/10 03:47:01;;;;;;;11.17;2.23;;;7.90;83.30;;;;;;5050194;28;20191;-72
2023/12/10 03:49:28;;;;;;;12.67;3.03;;;8.00;82.70;;;;;;5048696;28;20429;-71
2023/12/10 03:51:55;;;;;;;11.83;2.47;;;8.00;82.20;;;;;;5045239;28;20982;-71
2023/12/10 03:54:21;;;;;;;12.27;2.20;;;8.10;82.20;;;;;;5050150;28;20411;-71
2023/12/10 03:56:47;;;;;;;8.10;2.20;;;8.10;81.90;;;;;;5046531;28;20515;-70
2023/12/10 03:59:12;;;;;;;9.50;3.00;;;8.10;81.10;;;;;;5048308;28;20223;-74
2023/12/10 04:01:42;;;;;;;10.90;2.27;;;8.20;80.50;;;;;;5042243;28;20209;-72
2023/12/10 04:04:08;;;;;;;12.73;2.70;;;8.30;80.50;;;;;;5046201;28;20767;-72
2023/12/10 04:06:41;;;;;;;10.60;3.30;;;8.30;80.80;;;;;;5049643;28;21013;-72
2023/12/10 04:09:08;;;;;;;13.17;3.47;;;8.30;80.30;;;;;;5048135;28;20974;-73
2023/12/10 04:11:34;;;;;;;7.70;2.67;;;8.40;79.90;;;;;;5039488;28;20475;-71
2023/12/10 04:14:00;;;;;;;12.70;2.80;;;8.40;79.70;;;;;;5044596;28;21025;-73
2023/12/10 04:16:35;;;;;;;12.57;3.00;;;8.30;80.20;;;;;;5047917;28;20423;-72
2023/12/10 04:19:00;;;;;;;8.97;2.80;;;8.40;79.30;;;;;;5044359;28;20175;-72
2023/12/10 04:21:26;;;;;;;7.17;2.80;;;8.40;79.00;;;;;;5042730;28;20462;-72
2023/12/10 04:23:51;;;;;;;10.50;2.53;;;8.50;78.60;;;;;;5049586;28;20270;-72
2023/12/10 04:26:17;;;;;;;15.67;3.20;;;8.50;77.80;;;;;;5053658;28;20192;-71
2023/12/10 04:28:43;;;;;;;9.73;3.23;;;8.50;78.40;;;;;;5053592;28;20199;-72
2023/12/10 04:31:09;;;;;;;11.50;2.30;;;8.50;77.10;;;;;;5042370;28;20208;-70
2023/12/10 04:33:35;;;;;;;10.83;3.23;;;8.60;77.40;;;;;;5048423;28;20184;-70
2023/12/10 04:36:01;;;;;;;23.43;3.17;;;8.60;76.80;;;;;;5053880;28;20429;-73
2023/12/10 04:38:28;;;;;;;9.80;3.00;;;8.60;76.40;;;;;;5054121;28;20269;-71
2023/12/10 04:40:54;;;;;;;10.73;2.63;;;8.70;75.90;;;;;;5039694;28;20490;-72
2023/12/10 04:43:19;;;;;;;18.17;2.97;;;8.60;75.70;;;;;;5049478;28;20454;-72
2023/12/10 04:45:45;;;;;;;12.60;3.33;;;8.70;75.80;;;;;;5047076;28;20921;-72
2023/12/10 04:48:15;;;;;;;5.60;2.87;;;8.70;75.80;;;;;;5049481;28;20540;-72
2023/12/10 04:50:41;;;;;;;12.43;2.47;;;8.80;75.40;;;;;;5038769;28;20475;-71
2023/12/10 04:53:07;;;;;;;14.10;3.17;;;8.80;75.10;;;;;;5045310;28;20849;-72
2023/12/10 04:55:33;;;;;;;19.03;2.80;;;8.80;75.20;;;;;;5050343;28;20200;-70
2023/12/10 04:57:59;;;;;;;9.20;2.93;;;8.80;74.90;;;;;;5053251;28;20423;-71
2023/12/10 05:00:24;;;;;;;15.27;3.37;;;8.80;74.60;;;;;;5049301;28;20292;-72
2023/12/10 05:02:50;;;;;;;8.97;3.23;;;8.80;74.90;;;;;;5050047;28;20515;-71
2023/12/10 05:05:16;;;;;;;9.33;3.40;;;8.70;75.40;;;;;;5052505;28;20228;-70
2023/12/10 05:07:42;;;;;;;10.97;2.33;;;8.80;74.80;;;;;;5051534;28;20211;-71
2023/12/10 05:10:08;;;;;;;12.90;2.50;;;8.80;74.30;;;;;;5051880;28;20451;-70
2023/12/10 05:12:34;;;;;;;15.53;2.70;;;8.80;74.20;;;;;;5050108;28;20460;-70
2023/12/10 05:14:59;;;;;;;12.33;3.10;;;8.80;73.60;;;;;;5050373;28;20422;-76
2023/12/10 05:17:25;;;;;;;18.07;3.73;;;8.80;73.50;;;;;;5053533;28;20220;-70
2023/12/10 05:19:51;;;;;;;10.43;2.67;;;8.80;73.30;;;;;;5049569;28;20591;-73
2023/12/10 05:22:17;;;;;;;14.60;3.33;;;8.90;72.70;;;;;;5042601;28;20442;-72
2023/12/10 05:24:42;;;;;;;15.03;2.97;;;8.80;73.20;;;;;;5048005;28;20180;-72
2023/12/10 05:27:09;;;;;;;17.43;3.07;;;8.90;73.00;;;;;;5052285;28;20271;-73
2023/12/10 05:29:35;;;;;;;15.63;4.20;;;8.90;72.10;;;;;;5051100;28;20201;-77
2023/12/10 05:32:01;;;;;;;12.43;2.90;;;8.80;72.70;;;;;;5046831;28;20420;-73
2023/12/10 05:34:26;;;;;;;13.00;3.10;;;8.80;73.00;;;;;;5053587;28;20528;-70
2023/12/10 05:36:52;;;;;;;12.70;3.17;;;8.80;72.90;;;;;;5052906;28;20687;-72
2023/12/10 05:39:18;;;;;;;12.27;3.37;;;8.80;72.90;;;;;;5050799;28;20199;-72
2023/12/10 05:41:43;;;;;;;10.57;2.53;;;8.80;72.70;;;;;;5044932;28;20270;-71
2023/12/10 05:44:09;;;;;;;15.37;3.70;;;8.80;72.40;;;;;;5051307;28;20708;-71
2023/12/10 05:46:34;;;;;;;13.37;2.53;;;8.70;72.90;;;;;;5051680;28;20213;-73
2023/12/10 05:49:01;;;;;;;11.57;3.00;;;8.70;72.40;;;;;;5052493;28;20185;-72
2023/12/10 05:51:27;;;;;;;21.60;3.20;;;8.70;72.30;;;;;;5044073;28;20213;-72
2023/12/10 05:53:53;;;;;;;6.93;2.33;;;8.70;72.30;;;;;;5050050;28;20481;-72
2023/12/10 05:56:19;;;;;;;15.13;2.77;;;8.70;72.00;;;;;;5051072;28;20259;-71
2023/12/10 05:58:45;;;;;;;8.83;2.30;;;8.80;72.00;;;;;;5051954;28;20415;-75
2023/12/10 06:01:10;;;;;;;10.50;2.03;;;8.80;71.80;;;;;;5049203;28;20205;-73
2023/12/10 06:03:36;;;;;;;9.20;3.00;;;8.80;71.40;;;;;;5049714;28;20671;-75
2023/12/10 06:06:02;;;;;;;7.97;2.67;;;8.80;71.30;;;;;;5052061;28;20196;-70
2023/12/10 06:08:28;;;;;;;12.43;2.50;;;8.90;71.40;;;;;;5051978;28;20226;-71
2023/12/10 06:10:54;;;;;;;9.60;2.60;;;8.90;71.40;;;;;;5041721;28;20467;-71
2023/12/10 06:13:20;;;;;;;9.00;3.00;;;8.90;71.60;;;;;;5049016;28;20656;-70
2023/12/10 06:15:46;;;;;;;15.73;3.20;;;8.90;71.30;;;;;;5048190;28;20419;-72
2023/12/10 06:18:12;;;;;;;8.80;2.33;;;8.90;71.30;;;;;;5051291;28;20245;-73
2023/12/10 06:20:37;;;;;;;13.73;2.77;;;8.80;71.70;;;;;;5042097;28;20204;-71
2023/12/10 06:23:03;;;;;;;12.40;3.37;;;8.80;71.00;;;;;;5044494;28;20558;-71
2023/12/10 06:25:29;;;;;;;22.37;3.57;;;8.80;71.30;;;;;;5050636;28;20216;-72
2023/12/10 06:27:56;;;;;;;12.80;2.60;;;8.80;70.80;;;;;;5051751;28;20195;-71
2023/12/10 06:30:22;;;;;;;12.10;3.50;;;8.80;70.80;;;;;;5046771;28;20287;-72
2023/12/10 06:32:48;;;;;;;12.33;2.50;;;8.80;70.50;;;;;;5046782;28;20790;-70
2023/12/10 06:35:14;;;;;;;8.67;1.70;;;8.90;69.70;;;;;;5050724;28;20471;-70
2023/12/10 06:37:40;;;;;;;11.33;2.93;;;8.90;69.50;;;;;;5051513;28;20183;-70
2023/12/10 06:40:06;;;;;;;6.77;2.23;;;8.90;69.40;;;;;;5047244;28;20215;-70
2023/12/10 06:42:33;;;;;;;14.90;3.07;;;8.90;69.20;;;;;;5043460;28;20469;-73
2023/12/10 06:44:59;;;;;;;11.63;2.60;;;8.90;69.40;;;;;;5051082;28;21028;-72
2023/12/10 06:47:24;;;;;;;19.07;2.70;;;8.90;69.80;;;;;;5050748;28;20427;-71
2023/12/10 06:49:50;;;;;;;10.23;2.73;;;8.90;69.70;;;;;;5049500;28;20215;-72
2023/12/10 06:52:17;;;;;;;11.60;2.43;;;8.90;69.80;;;;;;5043118;28;20689;-75
2023/12/10 06:54:43;;;;;;;9.77;3.23;;;9.00;70.10;;;;;;5048271;28;20207;-71
2023/12/10 06:57:09;;;;;;;13.23;2.57;;;8.90;70.40;;;;;;5050573;28;20557;-72
2023/12/10 06:59:35;;;;;;;16.87;3.47;;;8.90;70.10;;;;;;5039683;28;21115;-73
2023/12/10 07:02:01;;;;;;;16.30;2.70;;;8.90;70.70;;;;;;5048894;28;20553;-74
2023/12/10 07:04:26;;;;;;;9.47;2.93;;;8.80;70.80;;;;;;5051263;28;20185;-72
2023/12/10 07:06:52;;;;;;;5.00;2.07;;;8.70;71.00;;;;;;5052260;28;20466;-72
2023/12/10 07:09:17;;;;;;;9.77;2.30;;;8.70;71.00;;;;;;5050778;28;20173;-73
2023/12/10 07:11:43;;;;;;;8.87;2.53;;;8.70;71.40;;;;;;5051141;28;20177;-75
2023/12/10 07:14:09;;;;;;;11.40;1.93;;;8.60;71.10;;;;;;5053316;28;20177;-70
2023/12/10 07:16:34;;;;;;;9.40;2.67;;;8.60;71.60;;;;;;5047553;28;20326;-72
2023/12/10 07:19:00;;;;;;;7.53;2.67;;;8.60;71.60;;;;;;5052555;28;20184;-74
2023/12/10 07:21:26;;;;;;;7.97;2.50;;;8.60;71.60;;;;;;5048157;28;20288;-74
2023/12/10 07:23:51;;;;;;;9.73;2.80;;;8.60;71.70;;;;;;5049929;28;20708;-73
2023/12/10 07:26:22;;;;;;;11.60;2.53;;;8.60;72.30;;;;;;5048580;28;20722;-74
2023/12/10 07:28:48;;;;;;;11.13;2.10;;;8.50;73.30;;;;;;5051306;28;20546;-73
2023/12/10 07:31:13;;;;;;;8.10;2.37;;;8.40;74.50;;;;;;5055085;28;20462;-72
2023/12/10 07:33:39;;;;;;;14.33;2.73;;;8.30;76.10;;;;;;5049959;28;20184;-75
2023/12/10 07:36:05;;;;;;;14.20;3.70;;;8.10;77.00;;;;;;5077149;28;20196;-74
2023/12/10 07:38:30;;;;;;;9.47;2.87;;;8.00;77.70;;;;;;5047776;28;20652;-74
2023/12/10 07:40:56;;;;;;;6.53;2.60;;;7.90;78.00;;;;;;5046684;28;20454;-72
2023/12/10 07:43:22;;;;;;;10.07;3.10;;;7.90;77.80;;;;;;5049138;28;20185;-72
2023/12/10 07:45:49;;;;;;;22.17;4.43;;;8.00;77.10;;;;;;5049224;28;20499;-72
2023/12/10 07:48:15;;;;;;;14.23;3.10;;;8.00;77.40;;;;;;5049373;28;20450;-72
2023/12/10 07:50:41;;;;;;;18.60;4.00;;;8.00;77.80;;;;;;5046809;28;20208;-75
2023/12/10 07:53:06;;;;;;;11.10;3.60;;;8.00;77.60;;;;;;5048322;28;20431;-77
2023/12/10 07:55:32;;;;;;;12.33;3.00;;;8.10;76.40;;;;;;5045573;28;20621;-73
2023/12/10 07:57:58;;;;;;;12.77;2.60;;;8.20;76.20;;;;;;5051193;28;20208;-75
2023/12/10 08:00:23;;;;;;;12.73;3.23;;;8.30;74.90;;;;;;5047153;28;20286;-72
2023/12/10 08:02:49;;;;;;;8.23;2.50;;;8.40;74.60;;;;;;5040922;28;20263;-73
2023/12/10 08:05:15;;;;;;;10.67;2.60;;;8.50;74.30;;;;;;5052448;28;20208;-72
2023/12/10 08:07:40;;;;;;;10.93;2.47;;;8.50;74.20;;;;;;5051545;28;20192;-71
2023/12/10 08:10:07;;;;;;;10.70;2.37;;;8.60;73.20;;;;;;5042701;28;20208;-74
2023/12/10 08:12:32;;;;;;;13.23;2.80;;;8.70;73.00;;;;;;5043992;28;20176;-73
2023/12/10 08:14:59;;;;;;;9.67;2.77;;;8.70;72.70;;;;;;5051677;28;20829;-73
2023/12/10 08:17:27;;;;;;;15.00;2.63;;;8.80;72.10;;;;;;5052564;28;20188;-73
2023/12/10 08:19:53;;;;;;;9.07;3.43;;;8.80;72.10;;;;;;5045514;28;20466;-71
2023/12/10 08:22:19;;;;;;;11.83;3.80;;;8.80;72.60;;;;;;5059337;28;20423;-72
2023/12/10 08:24:44;;;;;;;11.30;3.10;;;8.90;72.30;;;;;;5052029;28;20189;-74
2023/12/10 08:27:13;;;;;;;16.50;3.27;;;8.90;72.70;;;;;;5060191;28;20427;-72
2023/12/10 08:29:39;;;;;;;11.20;4.00;;;8.90;72.10;;;;;;5053376;28;20233;-72
2023/12/10 08:32:05;;;;;;;8.50;2.30;;;8.90;72.10;;;;;;5054171;28;20506;-73
2023/12/10 08:34:31;;;;;;;7.30;2.77;;;8.90;72.30;;;;;;5054771;28;20227;-72
2023/12/10 08:36:57;;;;;;;12.67;3.60;;;9.00;72.40;;;;;;5054170;28;20431;-72
2023/12/10 08:39:25;;;;;;;13.27;2.93;;;9.00;72.00;;;;;;5049677;28;20188;-73
2023/12/10 08:41:51;;;;;;;8.57;2.63;;;9.00;72.10;;;;;;5048421;28;20208;-73
2023/12/10 08:44:17;;;;;;;7.13;1.93;;;9.00;72.00;;;;;;5044153;28;20423;-73
2023/12/10 08:46:43;;;;;;;12.83;2.93;;;9.10;71.70;;;;;;5046130;28;20493;-72
2023/12/10 08:49:08;;;;;;;10.97;2.80;;;9.10;71.40;;;;;;5051498;28;20185;-73
2023/12/10 08:51:35;;;;;;;14.63;2.87;;;9.20;71.10;;;;;;5052112;28;20434;-73
2023/12/10 08:54:01;;;;;;;9.90;3.07;;;9.20;71.30;;;;;;5053013;28;20239;-73
2023/12/10 08:56:27;;;;;;;16.17;3.00;;;9.10;71.10;;;;;;5056983;28;20447;-72
2023/12/10 08:58:52;;;;;;;15.60;3.37;;;9.20;71.10;;;;;;5061562;28;20189;-73
2023/12/10 09:01:18;;;;;;;10.03;3.00;;;9.10;70.50;;;;;;5053362;28;20471;-72
2023/12/10 09:03:45;;;;;;;13.80;3.37;;;9.10;70.70;;;;;;5049031;28;20184;-71
2023/12/10 09:06:14;;;;;;;9.63;2.20;;;9.10;71.10;;;;;;5055735;28;20200;-73
2023/12/10 09:08:40;;;;;;;8.67;3.20;;;9.10;71.40;;;;;;5058198;28;20430;-72
2023/12/10 09:11:05;;;;;;;9.37;2.73;;;9.20;71.30;;;;;;5053080;28;20458;-72
2023/12/10 09:13:32;;;;;;;7.50;1.70;;;9.20;71.10;;;;;;5049354;28;20248;-72
2023/12/10 09:15:58;;;;;;;16.07;3.13;;;9.20;70.40;;;;;;5051242;28;20212;-71
2023/12/10 09:18:27;;;;;;;9.30;2.93;;;9.30;70.70;;;;;;5053764;28;20427;-73
2023/12/10 09:20:54;;;;;;;15.93;4.90;;;9.30;70.50;;;;;;5047711;28;20456;-73
2023/12/10 09:23:21;;;;;;;8.37;2.50;;;9.50;70.20;;;;;;5057299;28;20433;-72
2023/12/10 09:25:51;;;;;;;13.87;2.97;;;9.60;70.40;;;;;;5056646;28;21016;-73
2023/12/10 09:28:16;;;;;;;8.40;2.70;;;9.70;69.80;;;;;;5055343;28;20423;-71
2023/12/10 09:30:43;;;;;;;8.73;2.70;;;9.70;69.20;;;;;;5051121;28;20853;-73
2023/12/10 09:33:08;;;;;;;9.23;3.30;;;9.70;69.50;;;;;;5056706;28;20203;-70
2023/12/10 09:35:35;;;;;;;9.03;2.27;;;9.70;69.50;;;;;;5056326;28;20443;-70
2023/12/10 09:38:03;;;;;;;11.10;3.20;;;9.70;69.70;;;;;;5053344;28;20188;-72
2023/12/10 09:40:31;;;;;;;11.20;2.80;;;9.70;70.10;;;;;;5050891;28;20544;-69
2023/12/10 09:42:57;;;;;;;13.03;3.03;;;9.70;69.90;;;;;;5050257;28;20420;-72
2023/12/10 09:45:23;;;;;;;3.53;2.10;;;9.80;70.10;;;;;;5046761;28;20463;-71
2023/12/10 09:47:48;;;;;;;5.37;1.70;;;9.80;69.90;;;;;;5048909;28;20428;-71
2023/12/10 09:50:14;;;;;;;4.80;2.30;;;9.80;70.10;;;;;;5047683;28;20284;-71
2023/12/10 09:52:40;;;;;;;13.93;2.20;;;9.70;70.10;;;;;;5042978;28;20198;-71
2023/12/10 09:55:06;;;;;;;7.97;2.77;;;9.80;70.40;;;;;;5048854;28;20177;-71
2023/12/10 09:57:31;;;;;;;9.60;2.33;;;9.80;70.50;;;;;;5051131;28;20185;-72
2023/12/10 09:59:57;;;;;;;11.07;2.37;;;9.80;71.40;;;;;;5046517;28;20963;-74
2023/12/10 10:02:33;;;;;;;1.50;1.10;;;9.80;71.00;;;;;;5043546;28;20205;-70
2023/12/10 10:05:03;;;;;;;5.00;1.77;;;9.70;70.50;;;;;;5052454;28;20604;-73
2023/12/10 10:07:29;;;;;;;6.93;1.53;;;9.70;71.10;;;;;;5052002;28;20477;-69
2023/12/10 10:09:55;;;;;;;6.87;2.00;;;9.50;71.30;;;;;;5050226;28;20496;-73
2023/12/10 10:12:21;;;;;;;13.93;2.77;;;9.40;72.00;;;;;;5043124;28;20419;-72
2023/12/10 10:14:57;;;;;;;10.07;2.27;;;9.40;72.40;;;;;;5051852;28;20180;-72
2023/12/10 10:17:34;;;;;;;14.33;2.50;;;9.50;72.40;;;;;;5050631;28;20189;-72
2023/12/10 10:20:00;;;;;;;13.60;2.80;;;9.50;72.70;;;;;;5041470;28;20815;-73
2023/12/10 10:22:27;;;;;;;5.90;1.73;;;9.60;72.70;;;;;;5045572;28;20439;-71
2023/12/10 10:24:56;;;;;;;11.23;2.40;;;9.60;72.70;;;;;;5047981;28;20177;-74
2023/12/10 10:27:22;;;;;;;5.40;2.10;;;9.60;72.70;;;;;;5051320;28;20484;-73
2023/12/10 10:29:54;;;;;;;6.67;2.37;;;9.50;72.70;;;;;;5049850;28;20842;-74
2023/12/10 10:32:21;;;;;;;9.50;2.40;;;9.50;73.30;;;;;;5045748;28;21031;-73
2023/12/10 10:34:48;;;;;;;8.00;1.60;;;9.40;73.30;;;;;;5050754;28;20431;-73
2023/12/10 10:37:17;;;;;;;8.10;2.30;;;9.40;73.60;;;;;;5048808;28;20439;-73
2023/12/10 10:39:43;;;;;;;7.57;1.70;;;9.40;74.20;;;;;;5043776;28;20841;-70
2023/12/10 10:42:10;;;;;;;7.43;2.37;;;9.40;74.00;;;;;;5047461;28;20491;-72
2023/12/10 10:44:39;;;;;;;6.37;2.40;;;9.40;73.70;;;;;;5049480;28;21026;-75
2023/12/10 10:47:06;;;;;;;7.40;3.07;;;9.50;73.60;;;;;;5050916;28;20442;-70
2023/12/10 10:49:33;;;;;;;10.60;3.33;;;9.60;73.50;;;;;;5048715;28;20446;-74
2023/12/10 10:52:03;;;;;;;10.37;2.57;;;9.60;73.00;;;;;;5049561;28;20465;-71
2023/12/10 10:54:29;;;;;;;10.40;2.20;;;9.60;73.00;;;;;;5048999;28;20521;-68
2023/12/10 10:56:55;;;;;;;8.60;2.87;;;9.60;72.90;;;;;;5051707;28;20453;-72
2023/12/10 10:59:28;;;;;;;11.47;2.47;;;9.60;73.30;;;;;;5042301;28;20940;-77
2023/12/10 11:01:54;;;;;;;8.10;2.10;;;9.70;73.00;;;;;;5044910;28;20181;-75
2023/12/10 11:04:21;;;;;;;11.27;2.27;;;9.60;72.10;;;;;;5048130;28;20702;-73
2023/12/10 11:06:47;;;;;;;6.80;2.30;;;9.60;72.60;;;;;;5052856;28;20212;-74
2023/12/10 11:09:12;;;;;;;10.27;1.97;;;9.70;72.10;;;;;;5048363;28;20815;-75
2023/12/10 11:11:39;;;;;;;6.27;2.30;;;9.70;72.30;;;;;;5045170;28;20685;-72
2023/12/10 11:14:28;;;;;;;5.13;2.50;;;9.80;72.10;;;;;;5048610;28;20196;-72
2023/12/10 11:16:59;;;;;;;14.63;2.27;;;9.80;71.80;;;;;;5046707;28;20537;-73
2023/12/10 11:19:24;;;;;;;4.00;1.77;;;9.80;71.60;;;;;;5049109;28;20435;-72
2023/12/10 11:21:50;;;;;;;6.10;2.40;;;9.80;71.70;;;;;;5041235;28;20419;-73
2023/12/10 11:24:17;;;;;;;7.83;2.43;;;9.80;71.70;;;;;;5046199;28;20187;-72
2023/12/10 11:26:43;;;;;;;8.00;2.13;;;9.90;71.70;;;;;;5050254;28;20489;-73
2023/12/10 11:29:08;;;;;;;8.30;2.20;;;9.80;71.60;;;;;;5048776;28;20431;-71
2023/12/10 11:31:37;;;;;;;12.07;3.17;;;9.80;71.70;;;;;;5043796;28;20450;-72
2023/12/10 11:34:04;;;;;;;8.73;2.87;;;9.70;72.00;;;;;;5051797;28;20216;-72
2023/12/10 11:36:29;;;;;;;6.40;2.00;;;9.70;72.30;;;;;;5053254;28;20437;-72
2023/12/10 11:38:55;;;;;;;8.03;2.57;;;9.70;72.60;;;;;;5049253;28;20419;-72
2023/12/10 11:41:23;;;;;;;8.10;2.40;;;9.70;73.00;;;;;;5043904;28;20782;-71
2023/12/10 11:43:48;;;;;;;8.60;3.03;;;9.70;73.60;;;;;;5045085;28;20661;-71
2023/12/10 11:46:22;;;;;;;8.67;2.20;;;9.60;73.70;;;;;;5048418;28;20508;-73
2023/12/10 11:48:49;;;;;;;8.90;2.07;;;9.60;74.00;;;;;;5046110;28;20208;-72
2023/12/10 11:51:17;;;;;;;11.30;2.37;;;9.60;74.30;;;;;;5049325;28;20986;-74
2023/12/10 11:53:43;;;;;;;13.53;3.10;;;9.60;74.80;;;;;;5051316;28;20429;-72
2023/12/10 11:56:09;;;;;;;6.43;3.10;;;9.60;74.80;;;;;;5053818;28;20489;-71
2023/12/10 11:58:35;;;;;;;15.33;2.50;;;9.60;74.90;;;;;;5051711;28;20419;-73
2023/12/10 12:01:02;;;;;;;13.30;4.07;;;9.60;75.10;;;;;;5050694;28;20466;-71
2023/12/10 12:03:33;;;;;;;15.60;2.97;;;9.70;74.50;;;;;;5047326;28;20423;-73
2023/12/10 12:05:59;;;;;;;9.30;2.13;;;9.80;74.30;;;;;;5062124;28;20470;-75
2023/12/10 12:08:26;;;;;;;11.73;2.83;;;9.80;74.20;;;;;;5056325;28;20945;-74
2023/12/10 12:10:53;;;;;;;11.40;2.70;;;9.80;74.20;;;;;;5050454;28;21010;-76
2023/12/10 12:13:18;;;;;;;6.33;1.50;;;9.80;73.90;;;;;;5042962;28;20433;-72
2023/12/10 12:15:48;;;;;;;7.97;2.70;;;9.90;73.60;;;;;;5052562;28;20443;-72
2023/12/10 12:18:14;;;;;;;17.03;3.27;;;9.90;73.70;;;;;;5054516;28;20260;-73
2023/12/10 12:20:40;;;;;;;6.73;2.50;;;9.90;73.30;;;;;;5053271;28;20462;-74
2023/12/10 12:23:05;;;;;;;12.30;2.93;;;9.90;73.30;;;;;;5051216;28;20849;-72
2023/12/10 12:25:34;;;;;;;12.27;2.50;;;9.90;73.20;;;;;;5050635;28;20217;-72
2023/12/10 12:28:09;;;;;;;13.93;3.37;;;9.90;73.20;;;;;;5048222;28;20191;-74
2023/12/10 12:30:36;;;;;;;12.40;3.70;;;9.90;73.30;;;;;;5047848;28;20466;-72
2023/12/10 12:33:02;;;;;;;8.97;2.40;;;10.00;72.90;;;;;;5048709;28;20414;-72
2023/12/10 12:35:29;;;;;;;9.17;2.30;;;10.00;72.40;;;;;;5055160;28;20458;-74
2023/12/10 12:37:54;;;;;;;6.17;1.20;;;10.00;72.40;;;;;;5054466;28;20423;-72
2023/12/10 12:40:20;;;;;;;10.90;2.70;;;10.00;72.00;;;;;;5045912;28;20474;-73
2023/12/10 12:42:50;;;;;;;10.73;2.60;;;10.00;72.10;;;;;;5050938;28;20180;-72
2023/12/10 12:45:16;;;;;;;14.60;3.23;;;10.00;71.80;;;;;;5053657;28;20237;-73